Time;durP1;ratioP1;P1;durP2;ratioP2;P2;SDS_P1;SDS_P2;PMS_P1;PMS_P2;Temp;Humidity;BMP_temperature;BMP_pressure;BME280_temperature;BME280_humidity;BME280_pressure;Samples;Min_cycle;Max_cycle;Signal;HPM_P1;HPM_P2
2022/11/18 00:01:08;;;;;;;1.87;1.43;;;14.40;65.70;;;;;;5010729;28;20435;-58
2022/11/18 00:03:34;;;;;;;2.17;1.40;;;14.50;66.30;;;;;;5022117;28;20531;-58
2022/11/18 00:06:00;;;;;;;2.30;1.90;;;14.60;66.20;;;;;;5020918;28;20455;-59
2022/11/18 00:08:25;;;;;;;1.63;1.53;;;14.70;66.20;;;;;;5026725;28;20189;-59
2022/11/18 00:10:51;;;;;;;1.30;1.20;;;14.20;66.40;;;;;;5019834;28;20700;-58
2022/11/18 00:16:03;;;;;;;2.00;1.63;;;13.90;68.40;;;;;;5017926;28;20703;-58
2022/11/18 00:18:29;;;;;;;1.80;1.60;;;13.80;68.10;;;;;;5025874;28;20535;-59
2022/11/18 00:20:59;;;;;;;1.37;1.10;;;13.70;68.80;;;;;;5026599;28;20585;-59
2022/11/18 00:23:24;;;;;;;2.00;1.57;;;13.70;69.20;;;;;;5028660;28;20280;-58
2022/11/18 00:25:50;;;;;;;1.20;1.00;;;13.90;68.80;;;;;;5027513;28;21073;-58
2022/11/18 00:28:16;;;;;;;2.60;1.60;;;13.80;68.50;;;;;;5042831;28;20549;-59
2022/11/18 00:30:41;;;;;;;2.23;1.50;;;14.00;68.30;;;;;;5024515;28;20278;-58
2022/11/18 00:33:07;;;;;;;1.40;1.10;;;14.10;67.90;;;;;;5023193;28;20198;-58
2022/11/18 00:35:32;;;;;;;1.50;1.40;;;14.30;67.40;;;;;;5027195;28;20633;-59
2022/11/18 00:37:58;;;;;;;1.33;1.23;;;14.30;67.20;;;;;;5024445;28;20615;-58
2022/11/18 00:40:24;;;;;;;3.50;1.30;;;14.40;66.90;;;;;;5017777;28;20204;-58
2022/11/18 00:42:50;;;;;;;1.40;0.90;;;14.50;66.90;;;;;;5025279;28;20197;-58
2022/11/18 00:45:17;;;;;;;1.67;0.90;;;14.60;67.40;;;;;;5022994;28;20440;-58
2022/11/18 00:47:42;;;;;;;0.90;0.90;;;14.70;66.50;;;;;;5022163;28;20197;-58
2022/11/18 00:50:08;;;;;;;1.40;1.07;;;14.70;66.10;;;;;;5025975;28;20946;-58
2022/11/18 00:52:34;;;;;;;1.10;0.70;;;14.70;66.00;;;;;;5024512;28;20193;-58
2022/11/18 00:54:59;;;;;;;0.87;0.87;;;14.70;66.20;;;;;;5026173;28;20475;-58
2022/11/18 00:57:25;;;;;;;1.60;0.70;;;14.70;66.40;;;;;;5027473;28;20677;-58
2022/11/18 00:59:51;;;;;;;2.37;1.00;;;14.60;65.60;;;;;;5027754;28;20194;-59
2022/11/18 01:02:16;;;;;;;0.83;0.83;;;14.50;66.30;;;;;;5024181;28;20189;-58
2022/11/18 01:04:42;;;;;;;1.37;0.90;;;14.60;66.40;;;;;;5022553;28;20588;-58
2022/11/18 01:07:07;;;;;;;0.50;0.50;;;14.70;66.40;;;;;;5028357;28;20279;-58
2022/11/18 01:09:33;;;;;;;1.20;1.10;;;14.70;66.10;;;;;;5025513;28;20189;-58
2022/11/18 01:14:43;;;;;;;1.03;0.80;;;14.60;66.20;;;;;;5024883;28;20672;-58
2022/11/18 01:17:09;;;;;;;0.87;0.70;;;14.50;66.50;;;;;;5025285;28;20487;-58
2022/11/18 01:19:34;;;;;;;0.80;0.80;;;14.30;67.80;;;;;;5025679;28;20221;-58
2022/11/18 01:22:01;;;;;;;0.90;0.70;;;14.40;67.50;;;;;;5025127;28;20241;-58
2022/11/18 01:24:32;;;;;;;2.20;2.00;;;14.50;67.20;;;;;;5021489;28;20699;-58
2022/11/18 01:26:58;;;;;;;1.03;1.00;;;14.30;67.40;;;;;;5028562;28;20440;-58
2022/11/18 01:29:24;;;;;;;1.03;0.90;;;14.20;67.20;;;;;;5028320;28;20490;-58
2022/11/18 01:31:49;;;;;;;0.90;0.80;;;13.90;68.70;;;;;;5030308;28;20504;-58
2022/11/18 01:34:15;;;;;;;1.20;0.90;;;13.80;68.60;;;;;;5030490;28;20190;-58
2022/11/18 01:36:40;;;;;;;0.90;0.80;;;13.60;69.30;;;;;;5032036;28;20738;-58
2022/11/18 01:39:06;;;;;;;0.83;0.80;;;13.60;69.80;;;;;;5024775;28;20297;-58
2022/11/18 01:41:31;;;;;;;1.60;1.50;;;13.60;69.80;;;;;;5025327;28;20243;-58
2022/11/18 01:44:01;;;;;;;1.80;0.93;;;13.70;70.10;;;;;;5021568;28;20197;-58
2022/11/18 01:46:30;;;;;;;1.70;0.80;;;13.60;70.00;;;;;;5022833;28;20205;-58
2022/11/18 01:49:06;;;;;;;0.70;0.70;;;13.80;70.10;;;;;;5019246;28;20954;-58
2022/11/18 01:51:47;;;;;;;0.83;0.80;;;13.80;69.50;;;;;;5027295;28;20575;-58
2022/11/18 01:54:19;;;;;;;0.70;0.70;;;14.00;69.50;;;;;;5026047;28;20790;-58
2022/11/18 01:56:50;;;;;;;0.90;0.60;;;14.10;69.00;;;;;;5029506;28;20574;-58
2022/11/18 01:59:26;;;;;;;2.80;2.20;;;14.10;68.80;;;;;;5026572;28;20451;-57
2022/11/18 02:01:54;;;;;;;0.70;0.70;;;14.10;68.90;;;;;;5025338;28;20868;-58
2022/11/18 02:04:21;;;;;;;1.43;0.90;;;13.90;69.10;;;;;;5019265;28;20448;-58
2022/11/18 02:06:47;;;;;;;1.30;0.80;;;14.00;69.20;;;;;;5024211;28;20452;-58
2022/11/18 02:09:14;;;;;;;1.30;0.80;;;14.10;69.40;;;;;;5020775;28;20446;-58
2022/11/18 02:11:55;;;;;;;0.90;0.90;;;14.20;69.00;;;;;;5026317;28;20216;-58
2022/11/18 02:14:30;;;;;;;0.83;0.80;;;14.20;68.80;;;;;;5022129;28;20447;-58
2022/11/18 02:17:20;;;;;;;1.23;0.80;;;14.20;68.50;;;;;;5026494;28;21081;-58
2022/11/18 02:19:46;;;;;;;1.10;0.80;;;14.00;67.80;;;;;;5026746;28;20462;-56
2022/11/18 02:22:39;;;;;;;0.70;0.70;;;13.90;67.50;;;;;;5026272;28;20467;-57
2022/11/18 02:25:12;;;;;;;0.70;0.60;;;14.00;67.90;;;;;;5020808;28;20197;-57
2022/11/18 02:27:54;;;;;;;1.33;0.80;;;14.10;67.20;;;;;;5036219;28;20444;-58
2022/11/18 02:30:20;;;;;;;0.90;0.57;;;14.30;67.60;;;;;;5026252;28;21014;-58
2022/11/18 02:33:06;;;;;;;1.60;0.80;;;14.40;67.50;;;;;;5027991;28;20444;-57
2022/11/18 02:35:39;;;;;;;0.93;0.83;;;14.50;67.30;;;;;;5027990;28;20206;-57
2022/11/18 02:38:13;;;;;;;0.63;0.63;;;14.60;67.10;;;;;;5028175;28;20448;-56
2022/11/18 02:40:48;;;;;;;0.70;0.60;;;14.60;67.20;;;;;;5026386;28;20447;-57
2022/11/18 02:43:35;;;;;;;0.80;0.60;;;14.60;66.90;;;;;;5023559;28;21076;-57
2022/11/18 02:46:10;;;;;;;0.60;0.60;;;14.60;66.60;;;;;;5021834;28;21488;-57
2022/11/18 02:48:42;;;;;;;0.80;0.80;;;14.60;66.40;;;;;;5017689;28;20940;-56
2022/11/18 02:51:08;;;;;;;1.70;0.87;;;14.60;66.60;;;;;;5025595;28;20448;-57
2022/11/18 02:53:37;;;;;;;2.73;0.83;;;14.60;66.60;;;;;;5030408;28;20566;-55
2022/11/18 02:56:03;;;;;;;0.70;0.70;;;14.60;66.90;;;;;;5030157;28;20522;-57
2022/11/18 02:58:29;;;;;;;0.70;0.70;;;14.60;66.90;;;;;;5026141;28;20436;-56
2022/11/18 03:00:57;;;;;;;1.00;0.80;;;14.60;67.20;;;;;;5030965;28;20444;-57
2022/11/18 03:03:29;;;;;;;1.20;1.10;;;14.70;67.20;;;;;;5029921;28;20627;-57
2022/11/18 03:06:15;;;;;;;0.77;0.70;;;14.70;67.40;;;;;;5030520;28;20498;-57
2022/11/18 03:08:51;;;;;;;0.73;0.73;;;14.70;67.50;;;;;;5029868;28;20447;-54
2022/11/18 03:11:22;;;;;;;2.10;0.90;;;14.70;67.40;;;;;;5028571;28;20451;-56
2022/11/18 03:14:20;;;;;;;1.90;1.13;;;14.70;67.40;;;;;;5028131;28;20436;-57
2022/11/18 03:17:03;;;;;;;1.03;0.83;;;14.70;67.70;;;;;;5025935;28;20487;-56
2022/11/18 03:19:33;;;;;;;1.57;1.20;;;14.70;67.70;;;;;;5024457;28;20537;-57
2022/11/18 03:22:29;;;;;;;2.40;0.90;;;14.70;67.70;;;;;;5030384;28;20479;-58
2022/11/18 03:25:00;;;;;;;0.80;0.80;;;14.70;68.60;;;;;;5026078;28;20483;-58
2022/11/18 03:27:35;;;;;;;1.40;0.77;;;14.70;67.80;;;;;;5027492;28;20530;-58
2022/11/18 03:30:14;;;;;;;1.20;0.87;;;14.80;68.00;;;;;;5027302;28;20446;-58
2022/11/18 03:32:50;;;;;;;0.60;0.60;;;14.70;67.50;;;;;;5026616;28;20456;-58
2022/11/18 03:35:21;;;;;;;0.97;0.87;;;14.70;67.70;;;;;;5028468;28;20970;-58
2022/11/18 03:37:50;;;;;;;2.87;0.90;;;14.70;67.70;;;;;;5031553;28;20464;-57
2022/11/18 03:40:21;;;;;;;1.10;0.90;;;14.70;67.70;;;;;;5040211;28;20453;-58
2022/11/18 03:42:51;;;;;;;2.30;1.00;;;14.70;67.80;;;;;;5029086;28;20453;-57
2022/11/18 03:45:25;;;;;;;1.83;0.67;;;14.60;67.50;;;;;;5027912;28;20439;-57
2022/11/18 03:47:59;;;;;;;1.10;1.00;;;14.50;67.30;;;;;;5023720;28;20435;-57
2022/11/18 03:50:40;;;;;;;1.27;0.77;;;14.50;67.50;;;;;;5026509;28;20963;-56
2022/11/18 03:53:07;;;;;;;0.97;0.77;;;14.60;67.30;;;;;;5026877;28;20435;-57
2022/11/18 03:55:38;;;;;;;0.80;0.70;;;14.40;67.60;;;;;;5022511;28;20455;-57
2022/11/18 03:58:14;;;;;;;1.83;0.60;;;14.40;67.80;;;;;;5026893;28;20442;-57
2022/11/18 04:00:44;;;;;;;1.20;0.70;;;14.50;67.60;;;;;;5031252;28;20455;-55
2022/11/18 04:03:10;;;;;;;1.33;0.60;;;14.40;67.30;;;;;;5026927;28;20436;-57
2022/11/18 04:05:41;;;;;;;1.20;0.83;;;14.50;67.30;;;;;;5026726;28;20916;-56
2022/11/18 04:08:19;;;;;;;1.00;0.90;;;14.50;67.00;;;;;;5024103;28;20582;-56
2022/11/18 04:10:54;;;;;;;0.90;0.70;;;14.50;66.90;;;;;;5019896;28;20443;-57
2022/11/18 04:13:25;;;;;;;1.10;0.67;;;14.60;66.80;;;;;;5020962;28;21085;-57
2022/11/18 04:15:53;;;;;;;1.27;1.17;;;14.60;66.80;;;;;;5019087;28;20500;-56
2022/11/18 04:18:18;;;;;;;1.30;0.60;;;14.60;66.80;;;;;;5027728;28;20447;-56
2022/11/18 04:20:44;;;;;;;2.10;1.00;;;14.60;66.90;;;;;;5020305;28;20499;-55
2022/11/18 04:23:10;;;;;;;0.60;0.60;;;14.60;67.00;;;;;;5025102;28;20189;-57
2022/11/18 04:25:36;;;;;;;2.57;1.00;;;14.60;67.20;;;;;;5028339;28;20204;-57
2022/11/18 04:28:02;;;;;;;0.80;0.70;;;14.60;67.20;;;;;;5026904;28;20269;-57
2022/11/18 04:30:28;;;;;;;1.83;1.17;;;14.60;67.30;;;;;;5022025;28;20197;-56
2022/11/18 04:32:53;;;;;;;1.10;0.90;;;14.60;67.40;;;;;;5024453;28;20481;-57
2022/11/18 04:35:19;;;;;;;1.67;0.63;;;14.60;67.40;;;;;;5024375;28;20255;-57
2022/11/18 04:37:45;;;;;;;0.60;0.60;;;14.60;67.20;;;;;;5026930;28;20748;-57
2022/11/18 04:40:10;;;;;;;1.23;0.70;;;14.50;67.00;;;;;;5024470;28;20192;-57
2022/11/18 04:42:36;;;;;;;0.90;0.70;;;14.50;67.10;;;;;;5024023;28;20696;-57
2022/11/18 04:45:03;;;;;;;1.97;0.93;;;14.40;66.90;;;;;;5029567;28;20587;-58
2022/11/18 04:47:28;;;;;;;0.97;0.67;;;14.40;66.90;;;;;;5025612;28;20649;-56
2022/11/18 04:49:54;;;;;;;0.93;0.90;;;14.40;66.70;;;;;;5020998;28;20454;-57
2022/11/18 04:52:19;;;;;;;1.93;0.80;;;14.50;66.50;;;;;;5023512;28;20200;-57
2022/11/18 04:54:45;;;;;;;2.63;0.70;;;14.40;66.10;;;;;;5020529;28;20621;-57
2022/11/18 04:57:11;;;;;;;0.80;0.60;;;14.40;65.80;;;;;;5024784;28;20307;-57
2022/11/18 04:59:37;;;;;;;1.10;1.00;;;14.50;65.60;;;;;;5022072;28;20208;-58
2022/11/18 05:02:03;;;;;;;1.27;1.00;;;14.50;65.30;;;;;;5027569;28;20266;-58
2022/11/18 05:04:31;;;;;;;1.33;1.13;;;14.50;65.10;;;;;;5023638;28;20443;-57
2022/11/18 05:06:58;;;;;;;1.00;0.90;;;14.50;65.00;;;;;;5024960;28;20547;-56
2022/11/18 05:09:23;;;;;;;2.70;1.20;;;14.50;65.00;;;;;;5024517;28;20440;-58
2022/11/18 05:14:33;;;;;;;0.93;0.70;;;14.40;64.10;;;;;;5030171;28;20212;-57
2022/11/18 05:17:01;;;;;;;0.97;0.83;;;14.20;64.80;;;;;;5027854;28;20499;-57
2022/11/18 05:19:26;;;;;;;1.77;0.63;;;14.20;65.00;;;;;;5023289;28;20204;-58
2022/11/18 05:21:53;;;;;;;1.50;1.07;;;14.20;64.60;;;;;;5024812;28;20475;-57
2022/11/18 05:24:18;;;;;;;2.03;0.90;;;14.30;64.50;;;;;;5023488;28;20726;-58
2022/11/18 05:26:44;;;;;;;1.47;1.30;;;14.30;64.10;;;;;;5021337;28;20462;-58
2022/11/18 05:29:10;;;;;;;2.83;1.10;;;14.40;64.10;;;;;;5022195;28;20332;-57
2022/11/18 05:31:36;;;;;;;1.67;1.03;;;14.40;64.20;;;;;;5025659;28;20519;-57
2022/11/18 05:34:02;;;;;;;1.80;0.87;;;14.40;64.10;;;;;;5026254;28;20488;-58
2022/11/18 05:36:28;;;;;;;3.93;1.23;;;14.50;64.00;;;;;;5027804;28;20498;-58
2022/11/18 05:38:53;;;;;;;1.40;0.90;;;14.50;63.80;;;;;;5022572;28;20197;-58
2022/11/18 05:44:04;;;;;;;1.20;0.80;;;14.50;63.30;;;;;;5020803;28;20242;-58
2022/11/18 05:46:30;;;;;;;1.73;1.30;;;14.50;63.30;;;;;;5025735;28;20444;-58
2022/11/18 05:48:56;;;;;;;1.73;1.30;;;14.50;63.40;;;;;;5022426;28;21470;-57
2022/11/18 05:51:22;;;;;;;2.60;1.47;;;14.50;63.60;;;;;;5022445;28;20444;-58
2022/11/18 05:53:50;;;;;;;1.67;1.00;;;14.50;63.70;;;;;;5020465;28;20194;-58
2022/11/18 05:56:35;;;;;;;1.80;1.03;;;14.50;63.70;;;;;;5024179;28;20483;-58
2022/11/18 05:59:01;;;;;;;1.83;1.23;;;14.30;62.10;;;;;;5021716;28;20451;-58
2022/11/18 06:01:29;;;;;;;1.23;1.10;;;14.20;62.80;;;;;;5025313;28;20451;-58
2022/11/18 06:03:56;;;;;;;3.60;2.30;;;14.20;63.00;;;;;;5022420;28;21990;-58
2022/11/18 06:06:23;;;;;;;1.73;1.53;;;14.20;63.30;;;;;;5026754;28;20443;-58
2022/11/18 06:09:02;;;;;;;1.73;1.50;;;14.30;63.20;;;;;;5024796;28;20452;-58
2022/11/18 06:11:30;;;;;;;2.50;1.20;;;14.20;63.10;;;;;;5020879;28;20857;-57
2022/11/18 06:14:22;;;;;;;2.83;2.20;;;14.30;64.20;;;;;;5023070;28;20446;-57
2022/11/18 06:17:01;;;;;;;2.40;1.73;;;14.50;66.00;;;;;;5010289;28;20914;-59
2022/11/18 06:19:27;;;;;;;3.63;1.53;;;14.70;66.40;;;;;;5022767;28;20609;-59
2022/11/18 06:21:53;;;;;;;8.10;1.97;;;14.80;65.90;;;;;;5030789;28;20586;-58
2022/11/18 06:24:19;;;;;;;2.00;1.43;;;14.90;65.50;;;;;;5021631;28;20947;-58
2022/11/18 06:26:46;;;;;;;2.20;1.80;;;15.00;65.30;;;;;;5020781;28;20440;-58
2022/11/18 06:29:14;;;;;;;2.53;2.20;;;15.10;64.00;;;;;;5025191;28;20906;-58
2022/11/18 06:31:40;;;;;;;2.50;1.60;;;15.20;64.00;;;;;;5035733;28;20443;-58
2022/11/18 06:34:05;;;;;;;2.60;1.63;;;15.30;63.70;;;;;;5034240;28;20479;-58
2022/11/18 06:36:31;;;;;;;1.30;1.20;;;15.40;63.20;;;;;;5028174;28;20335;-58
2022/11/18 06:39:02;;;;;;;1.83;1.00;;;15.50;62.50;;;;;;5027388;28;20679;-58
2022/11/18 06:41:28;;;;;;;1.53;1.10;;;15.50;61.50;;;;;;5023038;28;20680;-58
2022/11/18 06:43:53;;;;;;;1.17;1.07;;;15.50;61.00;;;;;;5028903;28;20448;-58
2022/11/18 06:49:03;;;;;;;2.23;1.33;;;15.50;60.90;;;;;;5037516;28;20204;-57
2022/11/18 06:51:29;;;;;;;3.53;2.17;;;15.40;60.60;;;;;;5028334;28;20435;-58
2022/11/18 06:53:54;;;;;;;3.47;2.47;;;15.30;61.20;;;;;;5027827;28;20204;-58
2022/11/18 06:56:21;;;;;;;2.40;2.20;;;15.40;61.10;;;;;;5025130;28;20233;-58
2022/11/18 06:58:47;;;;;;;2.00;1.60;;;15.50;60.80;;;;;;5027648;28;20197;-57
2022/11/18 07:01:18;;;;;;;1.43;1.20;;;15.50;60.50;;;;;;5030910;28;20446;-58
2022/11/18 07:03:45;;;;;;;2.50;1.20;;;15.40;60.20;;;;;;5027500;28;21446;-58
2022/11/18 07:06:12;;;;;;;2.40;1.20;;;15.50;60.30;;;;;;5027960;28;20432;-58
2022/11/18 07:08:39;;;;;;;2.47;1.80;;;15.40;60.10;;;;;;5023111;28;20432;-58
2022/11/18 07:11:07;;;;;;;3.13;2.80;;;15.50;60.20;;;;;;5030043;28;20443;-58
2022/11/18 07:13:33;;;;;;;2.40;1.37;;;15.40;60.10;;;;;;5026411;28;20471;-58
2022/11/18 07:16:14;;;;;;;2.73;1.20;;;15.30;59.90;;;;;;5029288;28;21056;-58
2022/11/18 07:18:41;;;;;;;1.30;1.03;;;15.30;60.10;;;;;;5025875;28;20189;-58
2022/11/18 07:21:10;;;;;;;1.40;1.30;;;15.20;60.00;;;;;;5027232;28;20496;-58
2022/11/18 07:23:35;;;;;;;1.10;0.97;;;15.10;60.00;;;;;;5028784;28;20451;-59
2022/11/18 07:26:02;;;;;;;2.83;1.13;;;15.00;60.30;;;;;;5028834;28;20455;-58
2022/11/18 07:28:29;;;;;;;2.67;1.40;;;15.10;60.60;;;;;;5028138;28;20588;-58
2022/11/18 07:31:02;;;;;;;2.10;1.13;;;15.10;60.70;;;;;;5030784;28;20662;-58
2022/11/18 07:33:29;;;;;;;1.43;1.30;;;15.10;60.70;;;;;;5029225;28;20506;-58
2022/11/18 07:35:54;;;;;;;2.87;1.63;;;15.10;60.90;;;;;;5026247;28;20483;-60
2022/11/18 07:38:20;;;;;;;1.60;1.50;;;15.00;61.20;;;;;;5033125;28;20436;-59
2022/11/18 07:40:45;;;;;;;2.00;1.80;;;15.00;61.70;;;;;;5026806;28;20193;-58
2022/11/18 07:43:11;;;;;;;1.50;1.40;;;14.90;61.90;;;;;;5026560;28;20193;-58
2022/11/18 07:45:36;;;;;;;1.50;1.40;;;14.90;62.60;;;;;;5027984;28;20240;-58
2022/11/18 07:48:02;;;;;;;2.60;1.07;;;14.80;62.90;;;;;;5027821;28;20188;-58
2022/11/18 07:50:28;;;;;;;1.03;0.90;;;14.70;63.00;;;;;;5027815;28;20200;-58
2022/11/18 07:52:57;;;;;;;4.20;0.97;;;14.70;63.40;;;;;;5030340;28;20243;-59
2022/11/18 07:55:23;;;;;;;1.07;1.00;;;14.70;63.50;;;;;;5029053;28;20207;-59
2022/11/18 07:57:49;;;;;;;1.50;0.77;;;14.60;63.30;;;;;;5031652;28;20494;-58
2022/11/18 08:00:15;;;;;;;1.03;1.03;;;14.60;63.40;;;;;;5031937;28;20884;-58
2022/11/18 08:02:42;;;;;;;1.03;0.80;;;14.60;63.70;;;;;;5034677;28;20710;-59
2022/11/18 08:05:08;;;;;;;1.50;0.97;;;14.50;64.20;;;;;;5032474;28;20905;-59
2022/11/18 08:07:34;;;;;;;0.90;0.80;;;14.50;64.30;;;;;;5033360;28;20432;-58
2022/11/18 08:10:02;;;;;;;1.10;1.00;;;14.40;64.40;;;;;;5033624;28;20451;-58
2022/11/18 08:12:29;;;;;;;1.43;1.17;;;14.40;64.50;;;;;;5031625;28;20195;-58
2022/11/18 08:14:55;;;;;;;1.47;1.10;;;14.40;64.60;;;;;;5031231;28;20440;-59
2022/11/18 08:17:21;;;;;;;2.73;0.90;;;14.50;64.60;;;;;;5033128;28;20541;-58
2022/11/18 08:19:46;;;;;;;0.90;0.90;;;14.50;64.80;;;;;;5036213;28;20443;-59
2022/11/18 08:22:12;;;;;;;15.47;10.30;;;14.50;64.90;;;;;;5045256;28;20239;-59
2022/11/18 08:24:37;;;;;;;6.00;5.50;;;14.40;65.80;;;;;;5031529;28;20196;-59
2022/11/18 08:27:03;;;;;;;4.40;4.10;;;14.50;65.00;;;;;;5042216;28;20200;-58
2022/11/18 08:29:29;;;;;;;18.10;12.20;;;14.50;64.90;;;;;;5028110;28;20235;-59
2022/11/18 08:31:55;;;;;;;4.60;4.20;;;14.50;64.90;;;;;;5054794;28;20648;-58
2022/11/18 08:34:20;;;;;;;2.87;2.60;;;14.30;65.10;;;;;;5065608;28;20266;-59
2022/11/18 08:36:46;;;;;;;1.23;1.10;;;14.30;65.60;;;;;;5046312;28;20228;-59
2022/11/18 08:39:11;;;;;;;6.17;4.97;;;14.30;65.60;;;;;;5032915;28;20222;-58
2022/11/18 08:41:40;;;;;;;10.40;7.63;;;14.40;65.40;;;;;;5041845;28;20196;-59
2022/11/18 08:44:07;;;;;;;3.90;3.00;;;14.40;65.60;;;;;;5045743;28;20181;-58
2022/11/18 08:46:33;;;;;;;1.90;1.73;;;14.40;65.60;;;;;;5041264;28;20443;-58
2022/11/18 08:48:58;;;;;;;1.60;1.50;;;14.50;65.50;;;;;;5034111;28;20431;-58
2022/11/18 08:51:25;;;;;;;3.50;2.50;;;14.50;65.40;;;;;;5033267;28;20201;-58
2022/11/18 08:53:50;;;;;;;2.47;2.27;;;14.50;65.20;;;;;;5049060;28;20208;-59
2022/11/18 08:56:21;;;;;;;4.97;4.47;;;14.50;65.20;;;;;;5031034;28;20858;-58
2022/11/18 08:58:47;;;;;;;2.47;2.37;;;14.50;65.20;;;;;;5049352;28;20760;-59
2022/11/18 09:01:12;;;;;;;3.87;3.23;;;14.60;66.10;;;;;;5041668;28;20443;-59
2022/11/18 09:03:38;;;;;;;5.03;3.73;;;14.60;65.30;;;;;;5032186;28;20224;-58
2022/11/18 09:06:19;;;;;;;2.97;2.77;;;14.60;65.40;;;;;;5030913;28;20243;-58
2022/11/18 09:08:45;;;;;;;3.53;2.20;;;14.70;65.60;;;;;;5024868;28;20454;-59
2022/11/18 09:11:13;;;;;;;2.33;2.13;;;14.70;65.60;;;;;;5027479;28;21085;-59
2022/11/18 09:13:38;;;;;;;2.50;1.60;;;14.60;65.80;;;;;;5030610;28;20935;-59
2022/11/18 09:16:05;;;;;;;2.20;2.10;;;14.50;66.10;;;;;;5027413;28;20550;-59
2022/11/18 09:18:30;;;;;;;2.23;1.50;;;14.60;66.20;;;;;;5027065;28;20216;-59
2022/11/18 09:21:01;;;;;;;1.87;1.60;;;14.60;66.40;;;;;;5032263;28;20448;-59
2022/11/18 09:23:27;;;;;;;2.33;2.13;;;14.60;66.70;;;;;;5026534;28;20609;-59
2022/11/18 09:26:05;;;;;;;1.80;1.70;;;14.70;66.50;;;;;;5032485;28;20440;-59
2022/11/18 09:28:31;;;;;;;2.67;2.43;;;14.70;66.70;;;;;;5023766;28;20192;-59
2022/11/18 09:30:56;;;;;;;1.47;1.37;;;14.80;66.70;;;;;;5031207;28;20957;-59
2022/11/18 09:33:22;;;;;;;1.60;1.50;;;14.80;66.50;;;;;;5027900;28;20432;-59
2022/11/18 09:35:49;;;;;;;1.07;1.03;;;14.80;66.40;;;;;;5028246;28;20663;-59
2022/11/18 09:38:14;;;;;;;1.63;1.53;;;14.80;66.40;;;;;;5028750;28;20449;-59
2022/11/18 09:41:03;;;;;;;1.57;1.47;;;14.80;66.30;;;;;;5027985;28;20490;-59
2022/11/18 09:43:34;;;;;;;2.70;1.80;;;14.90;66.20;;;;;;5031730;28;20197;-59
2022/11/18 09:46:09;;;;;;;1.40;1.30;;;14.90;66.20;;;;;;5029005;28;20966;-59
2022/11/18 09:51:39;;;;;;;3.77;3.40;;;14.90;66.00;;;;;;5015108;28;20539;-58
2022/11/18 09:54:07;;;;;;;6.73;6.23;;;15.00;66.30;;;;;;5028439;28;20440;-59
2022/11/18 09:56:33;;;;;;;4.93;3.77;;;14.90;65.90;;;;;;5030980;28;20499;-59
2022/11/18 09:58:58;;;;;;;10.63;8.97;;;14.80;65.30;;;;;;5026349;28;20538;-59
2022/11/18 10:01:24;;;;;;;4.40;4.00;;;14.80;65.90;;;;;;5033114;28;20205;-59
2022/11/18 10:03:49;;;;;;;10.33;8.00;;;14.80;66.50;;;;;;5032725;28;20193;-59
2022/11/18 10:06:26;;;;;;;16.53;10.30;;;14.80;66.60;;;;;;5043223;28;20188;-59
2022/11/18 10:09:02;;;;;;;2.40;2.20;;;14.90;66.80;;;;;;5035499;28;20201;-59
2022/11/18 10:11:42;;;;;;;5.90;3.80;;;14.90;66.90;;;;;;5030938;28;20586;-59
2022/11/18 10:14:33;;;;;;;13.43;9.80;;;14.90;66.60;;;;;;5032550;28;20500;-59
2022/11/18 10:17:18;;;;;;;16.03;10.30;;;14.90;66.90;;;;;;5024100;28;20487;-58
2022/11/18 10:20:20;;;;;;;11.37;7.37;;;14.80;67.00;;;;;;5025642;28;20440;-58
2022/11/18 10:22:57;;;;;;;2.80;2.47;;;14.80;67.50;;;;;;4995161;28;21761;-59
2022/11/18 10:25:23;;;;;;;2.13;1.93;;;14.80;67.30;;;;;;5017918;28;20432;-60
2022/11/18 10:27:49;;;;;;;3.00;2.60;;;14.80;67.40;;;;;;5031525;28;20901;-58
2022/11/18 10:30:17;;;;;;;22.73;14.30;;;14.80;67.50;;;;;;5026752;28;20490;-58
2022/11/18 10:33:00;;;;;;;22.40;13.97;;;14.80;67.50;;;;;;5028357;28;20440;-59
2022/11/18 10:35:52;;;;;;;8.13;5.10;;;14.80;68.00;;;;;;5027914;28;20463;-59
2022/11/18 10:38:19;;;;;;;26.77;15.50;;;14.80;68.00;;;;;;5021006;28;20797;-58
2022/11/18 10:40:49;;;;;;;18.27;10.00;;;14.90;68.30;;;;;;5028149;28;20458;-58
2022/11/18 10:43:51;;;;;;;9.13;5.80;;;14.70;68.60;;;;;;5026685;28;20824;-59
2022/11/18 10:46:38;;;;;;;13.43;7.77;;;14.80;69.10;;;;;;5025476;28;20444;-59
2022/11/18 10:49:09;;;;;;;8.00;5.33;;;14.80;69.50;;;;;;5028381;28;20459;-59
2022/11/18 10:52:03;;;;;;;10.30;6.53;;;14.70;69.60;;;;;;5030100;28;20459;-59
2022/11/18 10:54:28;;;;;;;4.80;4.03;;;14.80;69.80;;;;;;5022538;28;20810;-60
2022/11/18 10:57:23;;;;;;;3.00;2.43;;;14.80;69.80;;;;;;5030223;28;20504;-59
2022/11/18 10:59:55;;;;;;;7.33;4.73;;;14.70;69.80;;;;;;5025733;28;20197;-60
2022/11/18 11:02:29;;;;;;;11.43;8.23;;;14.80;70.20;;;;;;5030767;28;20444;-59
2022/11/18 11:05:16;;;;;;;4.93;3.00;;;14.90;70.10;;;;;;5031206;28;20446;-60
2022/11/18 11:07:42;;;;;;;6.70;6.00;;;14.90;70.00;;;;;;5026165;28;20531;-59
2022/11/18 11:10:11;;;;;;;4.80;4.40;;;14.70;70.60;;;;;;5029310;28;20530;-59
2022/11/18 11:12:59;;;;;;;2.80;2.43;;;14.80;70.80;;;;;;5030877;28;20264;-59
2022/11/18 11:15:40;;;;;;;2.70;2.00;;;14.90;70.70;;;;;;5030505;28;20436;-60
2022/11/18 11:20:57;;;;;;;2.17;1.97;;;14.80;71.00;;;;;;5027052;28;20443;-60
2022/11/18 11:23:23;;;;;;;3.03;2.40;;;15.00;70.80;;;;;;5033334;28;20440;-59
2022/11/18 11:25:57;;;;;;;2.40;1.90;;;15.00;70.20;;;;;;5030446;28;20637;-59
2022/11/18 11:28:49;;;;;;;2.33;2.23;;;15.10;70.00;;;;;;5031410;28;20580;-59
2022/11/18 11:31:28;;;;;;;1.80;1.60;;;15.10;70.00;;;;;;5024551;28;20958;-59
2022/11/18 11:34:10;;;;;;;9.07;5.47;;;14.80;69.60;;;;;;5030667;28;20566;-59
2022/11/18 11:36:46;;;;;;;5.90;4.90;;;14.70;69.10;;;;;;5031366;28;20518;-59
2022/11/18 11:39:32;;;;;;;12.47;8.73;;;14.40;70.20;;;;;;5030848;28;20498;-59
2022/11/18 11:42:15;;;;;;;12.10;8.60;;;14.20;71.20;;;;;;5040320;28;20454;-60
2022/11/18 11:44:47;;;;;;;9.17;5.70;;;14.00;72.00;;;;;;5050134;28;20426;-59
2022/11/18 11:47:48;;;;;;;4.40;3.43;;;13.90;71.90;;;;;;5039606;28;20542;-59
2022/11/18 11:50:27;;;;;;;7.50;4.70;;;14.00;71.30;;;;;;5023431;28;20460;-60
2022/11/18 11:53:15;;;;;;;7.67;4.77;;;14.10;71.60;;;;;;5037397;28;20457;-59
2022/11/18 11:56:10;;;;;;;7.53;5.30;;;14.20;71.50;;;;;;5030094;28;20443;-59
2022/11/18 11:58:54;;;;;;;2.47;1.70;;;14.00;71.90;;;;;;5023077;28;20431;-59
2022/11/18 12:01:29;;;;;;;3.50;2.10;;;13.80;72.50;;;;;;5026976;28;20980;-59
2022/11/18 12:04:08;;;;;;;4.53;4.00;;;14.00;73.40;;;;;;5020689;28;20471;-59
2022/11/18 12:06:34;;;;;;;4.10;3.40;;;14.00;72.80;;;;;;5030302;28;20440;-59
2022/11/18 12:09:14;;;;;;;3.10;2.73;;;14.10;72.80;;;;;;5028497;28;20923;-59
2022/11/18 12:11:56;;;;;;;6.40;3.97;;;14.30;72.90;;;;;;5027758;28;20483;-59
2022/11/18 12:14:34;;;;;;;7.90;5.30;;;14.50;71.80;;;;;;5040144;28;20454;-59
2022/11/18 12:17:23;;;;;;;7.90;3.00;;;14.40;69.80;;;;;;5035181;28;20556;-59
2022/11/18 12:19:49;;;;;;;5.73;3.97;;;14.40;70.10;;;;;;5030310;28;20444;-60
2022/11/18 12:22:15;;;;;;;12.20;6.90;;;14.40;70.00;;;;;;5029098;28;20517;-59
2022/11/18 12:24:41;;;;;;;3.73;2.70;;;14.30;70.40;;;;;;5021358;28;20585;-59
2022/11/18 12:27:36;;;;;;;3.50;2.20;;;14.30;70.10;;;;;;5019669;28;20197;-59
2022/11/18 12:30:03;;;;;;;3.87;2.30;;;14.40;69.50;;;;;;5029429;28;20440;-59
2022/11/18 12:32:33;;;;;;;5.60;4.73;;;14.40;68.90;;;;;;5030693;28;20455;-59
2022/11/18 12:35:10;;;;;;;1.83;1.70;;;14.40;69.70;;;;;;5026710;28;20789;-59
2022/11/18 12:37:50;;;;;;;1.77;1.40;;;14.30;68.80;;;;;;5031424;28;20487;-59
2022/11/18 12:40:42;;;;;;;1.50;0.93;;;14.10;69.20;;;;;;5029028;28;20436;-59
2022/11/18 12:43:49;;;;;;;1.30;1.20;;;13.90;68.50;;;;;;5032010;28;20443;-58
2022/11/18 12:46:33;;;;;;;2.10;1.10;;;13.70;69.10;;;;;;5033173;28;20804;-59
2022/11/18 12:49:38;;;;;;;2.80;1.30;;;13.80;69.60;;;;;;5029916;28;20455;-60
2022/11/18 12:52:24;;;;;;;1.57;1.40;;;14.00;69.30;;;;;;5000929;28;20800;-59
2022/11/18 12:54:50;;;;;;;1.30;0.90;;;13.90;68.40;;;;;;5028656;28;20479;-59
2022/11/18 12:57:26;;;;;;;2.13;1.10;;;13.80;68.00;;;;;;5032941;28;20522;-59
2022/11/18 12:59:52;;;;;;;1.97;1.03;;;14.00;69.00;;;;;;5032820;28;20606;-60
2022/11/18 13:02:20;;;;;;;1.93;1.20;;;14.00;68.20;;;;;;5032056;28;20482;-59
2022/11/18 13:05:01;;;;;;;0.93;0.83;;;13.90;67.90;;;;;;5031523;28;20200;-59
2022/11/18 13:10:32;;;;;;;12.60;6.73;;;14.20;67.40;;;;;;5035636;28;20431;-59
2022/11/18 13:12:59;;;;;;;18.50;10.00;;;14.30;66.60;;;;;;5024700;28;20444;-59
2022/11/18 13:18:13;;;;;;;5.53;3.20;;;14.20;65.80;;;;;;5034076;28;20865;-59
2022/11/18 13:20:41;;;;;;;4.67;1.70;;;14.10;65.70;;;;;;5033110;28;20550;-60
2022/11/18 13:26:16;;;;;;;2.37;1.60;;;14.10;66.10;;;;;;5042304;28;20448;-59
2022/11/18 13:29:14;;;;;;;2.83;2.63;;;13.90;65.90;;;;;;5030512;28;20828;-59
2022/11/18 13:32:00;;;;;;;3.43;1.97;;;13.70;66.60;;;;;;5019608;28;20460;-59
2022/11/18 13:34:28;;;;;;;3.30;1.90;;;13.90;67.30;;;;;;5029051;28;20458;-59